Time;durP1;ratioP1;P1;durP2;ratioP2;P2;SDS_P1;SDS_P2;PMS_P1;PMS_P2;Temp;Humidity;BMP_temperature;BMP_pressure;BME280_temperature;BME280_humidity;BME280_pressure;Samples;Min_cycle;Max_cycle;Signal;HPM_P1;HPM_P2
2022/05/15 00:03:43;;;;;;;7.67;4.37;;;;;10.20;96631.00;;;;8240283;28;20523;-72
2022/05/15 00:07:47;;;;;;;8.33;4.00;;;;;10.20;96633.00;;;;8245586;28;20233;-71
2022/05/15 00:11:51;;;;;;;5.23;3.77;;;;;10.10;96623.00;;;;8238397;28;20245;-71
2022/05/15 00:15:55;;;;;;;11.63;3.87;;;;;10.10;96626.00;;;;8242831;28;20287;-73
2022/05/15 00:19:58;;;;;;;5.57;4.13;;;;;10.10;96619.00;;;;8239823;28;20233;-71
2022/05/15 00:24:01;;;;;;;5.03;3.50;;;;;10.10;96623.00;;;;8243663;28;20600;-74
2022/05/15 00:28:07;;;;;;;6.50;4.00;;;;;10.00;96623.00;;;;8238509;28;20230;-72
2022/05/15 00:32:10;;;;;;;7.87;4.10;;;;;10.00;96628.00;;;;8242241;28;20242;-71
2022/05/15 00:36:13;;;;;;;6.30;3.60;;;;;9.90;96623.00;;;;8242687;28;20234;-72
2022/05/15 00:40:19;;;;;;;7.33;4.00;;;;;9.90;96622.00;;;;8240963;28;20306;-72
2022/05/15 00:44:23;;;;;;;7.43;3.90;;;;;9.90;96617.00;;;;8241731;28;20579;-73
2022/05/15 00:48:26;;;;;;;4.47;3.67;;;;;9.90;96623.00;;;;8242222;28;20234;-74
2022/05/15 00:52:35;;;;;;;6.97;4.03;;;;;9.90;96623.00;;;;8239141;28;20620;-72
2022/05/15 00:56:41;;;;;;;5.70;3.83;;;;;9.90;96616.00;;;;8240158;28;20267;-71
2022/05/15 01:00:46;;;;;;;5.93;4.00;;;;;9.90;96615.00;;;;8241047;28;20234;-71
2022/05/15 01:04:50;;;;;;;5.23;3.63;;;;;9.90;96625.00;;;;8237401;28;20288;-72
2022/05/15 01:08:53;;;;;;;4.40;3.57;;;;;9.90;96626.00;;;;8231455;28;20826;-72
2022/05/15 01:12:58;;;;;;;5.23;3.47;;;;;9.80;96623.00;;;;8242778;28;20233;-71
2022/05/15 01:17:03;;;;;;;5.43;3.90;;;;;9.80;96624.00;;;;8247495;28;20309;-71
2022/05/15 01:21:23;;;;;;;7.50;4.00;;;;;9.70;96614.00;;;;8240604;28;20261;-72
2022/05/15 01:25:30;;;;;;;7.43;4.00;;;;;9.70;96613.00;;;;8237995;28;20321;-72
2022/05/15 01:29:36;;;;;;;4.60;3.90;;;;;9.70;96617.00;;;;8240092;28;20305;-70
2022/05/15 01:33:40;;;;;;;4.17;3.73;;;;;9.70;96624.00;;;;8235898;28;20226;-71
2022/05/15 01:37:45;;;;;;;3.73;3.43;;;;;9.60;96624.00;;;;8236457;28;20779;-70
2022/05/15 01:41:48;;;;;;;4.80;3.70;;;;;9.50;96621.00;;;;8244299;28;20222;-73
2022/05/15 01:45:51;;;;;;;7.97;4.10;;;;;9.40;96627.00;;;;8244935;28;20590;-72
2022/05/15 01:49:54;;;;;;;5.83;4.50;;;;;9.40;96618.00;;;;8244858;28;20242;-71
2022/05/15 01:53:59;;;;;;;6.23;4.20;;;;;9.40;96620.00;;;;8243556;28;20234;-72
2022/05/15 01:58:03;;;;;;;6.63;4.50;;;;;9.40;96619.00;;;;8247024;28;20725;-74
2022/05/15 02:02:06;;;;;;;6.70;4.27;;;;;9.40;96624.00;;;;8248927;28;20317;-72
2022/05/15 02:06:09;;;;;;;5.07;3.73;;;;;9.40;96617.00;;;;8245929;28;20552;-73
2022/05/15 02:10:15;;;;;;;8.97;4.20;;;;;9.40;96608.00;;;;8246683;28;20988;-72
2022/05/15 02:14:19;;;;;;;6.73;3.90;;;;;9.30;96611.00;;;;8247714;28;20242;-73
2022/05/15 02:18:23;;;;;;;7.17;4.67;;;;;9.30;96604.00;;;;8245016;28;20234;-72
2022/05/15 02:22:26;;;;;;;4.80;4.20;;;;;9.30;96606.00;;;;8243720;28;20240;-72
2022/05/15 02:26:31;;;;;;;7.17;4.63;;;;;9.30;96606.00;;;;8242298;28;20303;-71
2022/05/15 02:30:34;;;;;;;6.50;3.90;;;;;9.30;96601.00;;;;8242781;28;20717;-70
2022/05/15 02:34:37;;;;;;;9.53;4.50;;;;;9.20;96598.00;;;;8247425;28;20229;-71
2022/05/15 02:38:40;;;;;;;7.30;4.40;;;;;9.30;96598.00;;;;8244908;28;20231;-71
2022/05/15 02:42:45;;;;;;;5.87;4.97;;;;;9.30;96595.00;;;;8248097;28;20230;-71
2022/05/15 02:46:48;;;;;;;6.17;4.27;;;;;9.30;96599.00;;;;8245217;28;20234;-70
2022/05/15 02:51:06;;;;;;;10.90;4.67;;;;;9.30;96608.00;;;;8245468;28;20234;-70
2022/05/15 02:55:10;;;;;;;7.63;4.17;;;;;9.20;96604.00;;;;8242492;28;20234;-72
2022/05/15 02:59:18;;;;;;;7.67;4.33;;;;;9.10;96607.00;;;;8244377;28;20237;-73
2022/05/15 03:03:21;;;;;;;6.57;4.27;;;;;9.10;96608.00;;;;8314857;22;20225;-72
2022/05/15 03:07:24;;;;;;;9.83;4.53;;;;;9.10;96609.00;;;;8335608;28;20279;-73
2022/05/15 03:11:28;;;;;;;4.67;4.27;;;;;9.00;96608.00;;;;8339273;28;20241;-72
2022/05/15 03:15:32;;;;;;;6.20;4.70;;;;;9.00;96605.00;;;;8344847;28;20237;-71
2022/05/15 03:19:35;;;;;;;11.00;4.57;;;;;9.00;96611.00;;;;8342813;28;20220;-72
2022/05/15 03:23:39;;;;;;;9.40;4.90;;;;;8.90;96605.00;;;;8334807;28;20232;-71
2022/05/15 03:27:42;;;;;;;10.30;4.97;;;;;8.90;96605.00;;;;8344203;28;20305;-73
2022/05/15 03:31:47;;;;;;;8.23;4.63;;;;;8.90;96611.00;;;;8337913;28;20235;-72
2022/05/15 03:35:51;;;;;;;6.83;4.77;;;;;8.90;96613.00;;;;8341147;28;20286;-73
2022/05/15 03:39:54;;;;;;;8.30;4.70;;;;;8.90;96610.00;;;;8333780;28;20231;-72
2022/05/15 03:43:58;;;;;;;7.57;4.47;;;;;8.90;96608.00;;;;8340461;28;20236;-72
2022/05/15 03:48:03;;;;;;;7.57;4.67;;;;;8.90;96609.00;;;;8337159;28;20263;-72
2022/05/15 03:52:06;;;;;;;6.87;4.90;;;;;8.90;96612.00;;;;8341282;28;20684;-74
2022/05/15 03:56:10;;;;;;;8.63;5.07;;;;;8.90;96611.00;;;;8345390;28;20347;-74
2022/05/15 04:00:17;;;;;;;7.33;4.60;;;;;9.00;96607.00;;;;8343656;28;20232;-74
2022/05/15 04:04:22;;;;;;;6.90;4.93;;;;;9.00;96608.00;;;;8299711;28;20238;-73
2022/05/15 04:08:27;;;;;;;8.83;4.37;;;;;9.10;96611.00;;;;8300904;28;20249;-73
2022/05/15 04:12:30;;;;;;;9.47;4.77;;;;;9.20;96604.00;;;;8307989;28;20315;-73
2022/05/15 04:16:34;;;;;;;6.47;4.80;;;;;9.30;96609.00;;;;8314639;28;20233;-74
2022/05/15 04:20:39;;;;;;;6.60;4.77;;;;;9.40;96612.00;;;;8308421;28;20243;-74
2022/05/15 04:24:42;;;;;;;6.87;4.60;;;;;9.50;96609.00;;;;8311162;28;20326;-73
2022/05/15 04:28:45;;;;;;;10.40;5.77;;;;;9.70;96617.00;;;;8299134;28;20228;-73
2022/05/15 04:32:51;;;;;;;12.93;5.67;;;;;9.90;96612.00;;;;8305713;28;20232;-70
2022/05/15 04:36:56;;;;;;;11.90;5.83;;;;;10.40;96616.00;;;;8301695;28;20230;-71
2022/05/15 04:40:59;;;;;;;10.23;4.70;;;;;11.20;96619.00;;;;8298438;28;20225;-73
2022/05/15 04:45:03;;;;;;;4.67;4.23;;;;;12.00;96633.00;;;;8313938;28;20263;-70
2022/05/15 04:49:06;;;;;;;8.38;4.03;;;;;12.70;96631.00;;;;8311047;28;20228;-73
2022/05/15 04:53:11;;;;;;;10.20;3.90;;;;;13.20;96633.00;;;;8309026;28;20231;-72
2022/05/15 04:57:14;;;;;;;6.07;4.07;;;;;13.70;96634.00;;;;8306316;28;20316;-73
2022/05/15 05:01:18;;;;;;;23.38;3.80;;;;;14.00;96636.00;;;;8311527;28;20301;-70
2022/05/15 05:05:22;;;;;;;4.65;3.65;;;;;14.40;96647.00;;;;8301710;28;20232;-70
2022/05/15 05:09:27;;;;;;;6.47;3.78;;;;;14.60;96652.00;;;;8299243;28;20233;-71
2022/05/15 05:13:30;;;;;;;5.97;3.70;;;;;14.80;96664.00;;;;8301599;28;20685;-69
2022/05/15 05:17:33;;;;;;;8.45;3.83;;;;;15.00;96664.00;;;;8311116;28;20786;-70
2022/05/15 05:21:36;;;;;;;5.45;3.55;;;;;15.30;96670.00;;;;8301855;28;20226;-71
2022/05/15 05:25:42;;;;;;;10.52;3.92;;;;;15.60;96659.00;;;;8306620;28;20311;-71
2022/05/15 05:29:45;;;;;;;10.35;3.45;;;;;15.90;96665.00;;;;8307874;28;20247;-73
2022/05/15 05:33:48;;;;;;;5.47;3.70;;;;;16.20;96677.00;;;;8300275;28;20221;-71
2022/05/15 05:37:53;;;;;;;6.30;3.40;;;;;16.40;96666.00;;;;8294031;28;20225;-72
2022/05/15 05:41:57;;;;;;;7.32;3.83;;;;;16.50;96675.00;;;;8287132;28;20243;-75
2022/05/15 05:46:01;;;;;;;5.63;3.47;;;;;16.70;96677.00;;;;8313352;28;20252;-71
2022/05/15 05:50:08;;;;;;;9.60;3.97;;;;;16.80;96669.00;;;;8302474;28;20941;-74
2022/05/15 05:54:12;;;;;;;6.50;3.60;;;;;17.00;96678.00;;;;8310182;28;20840;-71
2022/05/15 05:58:16;;;;;;;8.10;3.67;;;;;17.10;96686.00;;;;8279879;28;20341;-72
2022/05/15 06:02:19;;;;;;;11.50;3.72;;;;;17.30;96690.00;;;;8293273;28;20997;-72
2022/05/15 06:06:23;;;;;;;12.50;3.90;;;;;17.30;96690.00;;;;8304097;28;20287;-72
2022/05/15 06:10:26;;;;;;;8.65;3.95;;;;;17.30;96695.00;;;;8315000;28;20247;-71
2022/05/15 06:14:32;;;;;;;7.80;4.07;;;;;17.40;96692.00;;;;8316234;28;20224;-70
2022/05/15 06:18:36;;;;;;;6.40;3.85;;;;;17.30;96702.00;;;;8300009;28;20235;-71
2022/05/15 06:22:39;;;;;;;8.85;3.78;;;;;17.40;96701.00;;;;8306007;28;20239;-73
2022/05/15 06:26:43;;;;;;;10.23;3.47;;;;;17.50;96701.00;;;;8308035;28;20681;-71
2022/05/15 06:30:47;;;;;;;5.63;3.33;;;;;17.70;96694.00;;;;8311720;28;20702;-71
2022/05/15 06:34:50;;;;;;;13.20;3.58;;;;;18.30;96701.00;;;;8301008;28;21019;-72
2022/05/15 06:38:53;;;;;;;4.55;3.47;;;;;18.70;96698.00;;;;8310241;28;20244;-73
2022/05/15 06:42:57;;;;;;;11.43;3.60;;;;;18.80;96700.00;;;;8308495;28;20766;-73
2022/05/15 06:47:01;;;;;;;5.28;3.30;;;;;19.10;96701.00;;;;8310420;28;20725;-71
2022/05/15 06:51:05;;;;;;;7.10;3.65;;;;;19.60;96704.00;;;;8308601;28;20237;-70
2022/05/15 06:55:11;;;;;;;10.00;4.03;;;;;19.90;96704.00;;;;8294017;28;20285;-71
2022/05/15 06:59:14;;;;;;;7.70;3.63;;;;;20.20;96706.00;;;;8295367;28;20233;-73
2022/05/15 07:03:19;;;;;;;5.72;3.75;;;;;20.70;96714.00;;;;8304055;28;20609;-71
2022/05/15 07:07:23;;;;;;;8.57;3.25;;;;;21.30;96709.00;;;;8305648;28;20586;-69
2022/05/15 07:11:27;;;;;;;7.32;3.00;;;;;22.00;96707.00;;;;8308616;28;20236;-72
2022/05/15 07:15:30;;;;;;;5.93;3.20;;;;;22.60;96708.00;;;;8317277;28;20225;-71
2022/05/15 07:19:35;;;;;;;5.40;3.15;;;;;23.10;96707.00;;;;8306167;28;20308;-71
2022/05/15 07:23:38;;;;;;;6.15;3.40;;;;;23.30;96712.00;;;;8310870;28;20224;-73
2022/05/15 07:27:42;;;;;;;7.10;2.97;;;;;24.10;96706.00;;;;8304495;28;20229;-74
2022/05/15 07:31:47;;;;;;;4.50;3.30;;;;;24.40;96713.00;;;;8299616;28;20304;-70
2022/05/15 07:35:53;;;;;;;4.55;3.00;;;;;24.90;96709.00;;;;8302199;28;20753;-74
2022/05/15 07:39:56;;;;;;;6.90;3.47;;;;;25.00;96705.00;;;;8295344;28;20240;-72
2022/05/15 07:43:59;;;;;;;7.70;2.88;;;;;25.10;96708.00;;;;8280779;28;20334;-72
2022/05/15 07:48:02;;;;;;;4.32;3.50;;;;;25.30;96714.00;;;;8312324;28;20232;-70
2022/05/15 07:52:07;;;;;;;3.60;2.78;;;;;25.70;96711.00;;;;8307484;28;20251;-70
2022/05/15 07:56:13;;;;;;;5.60;3.30;;;;;26.00;96708.00;;;;8310372;28;20360;-73
2022/05/15 08:00:17;;;;;;;8.07;3.20;;;;;26.30;96704.00;;;;8286422;28;20230;-72
2022/05/15 08:04:21;;;;;;;3.33;2.88;;;;;26.90;96703.00;;;;8301883;28;20234;-72
2022/05/15 08:08:25;;;;;;;5.82;3.30;;;;;26.60;96701.00;;;;8312049;28;20237;-74
2022/05/15 08:12:28;;;;;;;7.07;3.90;;;;;26.50;96694.00;;;;8302009;28;20223;-73
2022/05/15 08:16:35;;;;;;;6.30;3.10;;;;;26.90;96699.00;;;;8284365;28;20588;-72
2022/05/15 08:25:01;;;;;;;6.47;2.70;;;;;28.00;96699.00;;;;8287244;28;20687;-72
2022/05/15 08:29:04;;;;;;;3.08;2.47;;;;;28.00;96695.00;;;;8311208;28;20221;-74
2022/05/15 08:33:09;;;;;;;4.90;4.40;;;;;28.40;96698.00;;;;8314752;28;20229;-75
2022/05/15 08:37:12;;;;;;;6.03;2.60;;;;;29.00;96703.00;;;;8302612;28;20697;-72
2022/05/15 08:41:37;;;;;;;7.38;2.65;;;;;29.60;96709.00;;;;8302468;28;20227;-73
2022/05/15 08:45:46;;;;;;;5.22;2.70;;;;;30.20;96708.00;;;;8307967;28;20228;-75
2022/05/15 08:49:54;;;;;;;8.10;4.40;;;;;30.90;96706.00;;;;8299970;28;20674;-70
2022/05/15 08:53:58;;;;;;;3.85;2.60;;;;;31.20;96714.00;;;;8296743;28;20224;-71
2022/05/15 08:58:06;;;;;;;4.97;2.67;;;;;31.00;96709.00;;;;8305354;28;20239;-72
2022/05/15 09:02:12;;;;;;;4.35;2.40;;;;;30.90;96713.00;;;;8306665;28;20654;-72
2022/05/15 09:06:25;;;;;;;8.98;6.60;;;;;31.40;96714.00;;;;8309223;28;20228;-72
2022/05/15 09:10:38;;;;;;;4.35;2.70;;;;;31.90;96710.00;;;;8313865;28;20727;-71
2022/05/15 09:15:00;;;;;;;7.38;2.90;;;;;31.90;96706.00;;;;8305348;28;20229;-73
2022/05/15 09:19:06;;;;;;;3.17;1.95;;;;;31.70;96713.00;;;;8287535;28;20742;-72
2022/05/15 09:23:21;;;;;;;4.32;2.40;;;;;31.40;96703.00;;;;8310494;28;21065;-72
2022/05/15 09:27:26;;;;;;;3.80;2.67;;;;;31.20;96711.00;;;;8311553;28;20228;-71
2022/05/15 09:31:38;;;;;;;18.02;11.85;;;;;31.70;96718.00;;;;8315210;28;20225;-73
2022/05/15 09:35:42;;;;;;;9.50;5.40;;;;;32.20;96717.00;;;;8308663;28;20225;-74
2022/05/15 09:39:47;;;;;;;5.25;2.80;;;;;32.60;96711.00;;;;8312415;28;20229;-72
2022/05/15 09:43:54;;;;;;;7.28;4.60;;;;;32.70;96716.00;;;;8313480;28;20232;-74
2022/05/15 09:48:05;;;;;;;5.40;2.70;;;;;33.10;96710.00;;;;8309159;28;20225;-71
2022/05/15 09:52:20;;;;;;;6.60;4.22;;;;;33.40;96714.00;;;;8272650;28;20579;-72
2022/05/15 09:56:29;;;;;;;2.80;1.88;;;;;33.00;96717.00;;;;8274146;28;20244;-71
2022/05/15 10:00:38;;;;;;;5.50;2.03;;;;;32.60;96709.00;;;;8308575;28;20237;-71
2022/05/15 10:04:48;;;;;;;15.02;7.68;;;;;33.00;96708.00;;;;8307444;28;20230;-72
2022/05/15 10:09:10;;;;;;;5.45;2.30;;;;;33.30;96709.00;;;;8303605;28;20929;-72
2022/05/15 10:13:21;;;;;;;4.50;2.75;;;;;34.10;96699.00;;;;8306451;28;20309;-71
2022/05/15 10:17:25;;;;;;;3.95;2.80;;;;;34.50;96703.00;;;;8314222;28;20229;-71
2022/05/15 10:21:36;;;;;;;7.90;5.22;;;;;34.60;96690.00;;;;8315771;28;20609;-73
2022/05/15 10:25:45;;;;;;;8.55;2.10;;;;;33.90;96688.00;;;;8314383;28;20233;-73
2022/05/15 10:29:56;;;;;;;3.35;2.17;;;;;33.00;96684.00;;;;8299734;28;20324;-71
2022/05/15 10:34:03;;;;;;;2.10;1.50;;;;;32.80;96685.00;;;;8315189;28;20227;-73
2022/05/15 10:38:17;;;;;;;2.80;1.90;;;;;33.00;96678.00;;;;8283297;28;20222;-73
2022/05/15 10:42:28;;;;;;;3.70;2.03;;;;;33.00;96671.00;;;;8299216;28;20248;-72
2022/05/15 10:46:46;;;;;;;14.48;9.27;;;;;33.30;96675.00;;;;8313370;28;20237;-73
2022/05/15 10:50:56;;;;;;;2.20;2.03;;;;;33.60;96665.00;;;;8299695;28;20225;-71
2022/05/15 10:59:36;;;;;;;4.60;2.00;;;;;34.90;96655.00;;;;8307081;28;20528;-72
2022/05/15 11:03:55;;;;;;;2.13;1.75;;;;;35.30;96653.00;;;;8308054;28;20238;-71
2022/05/15 11:08:18;;;;;;;3.10;1.55;;;;;35.30;96651.00;;;;8305215;28;20221;-69
2022/05/15 11:12:32;;;;;;;3.05;1.77;;;;;35.60;96640.00;;;;8312214;28;20233;-71
2022/05/15 11:16:43;;;;;;;5.60;3.92;;;;;35.40;96646.00;;;;8289875;28;20899;-75
2022/05/15 11:20:50;;;;;;;5.65;1.88;;;;;35.70;96635.00;;;;8296030;28;20225;-73
2022/05/15 11:25:00;;;;;;;4.57;2.03;;;;;35.30;96644.00;;;;8307400;28;20563;-76
2022/05/15 11:29:10;;;;;;;2.42;2.22;;;;;35.50;96641.00;;;;8298126;28;21112;-73
2022/05/15 11:33:31;;;;;;;1.98;1.70;;;;;35.90;96633.00;;;;8296382;28;20329;-71
2022/05/15 11:37:52;;;;;;;4.63;2.08;;;;;35.70;96631.00;;;;8275959;28;20238;-72
2022/05/15 11:42:14;;;;;;;2.97;1.65;;;;;35.00;96620.00;;;;8306419;28;20317;-74
2022/05/15 11:46:59;;;;;;;2.22;1.60;;;;;34.70;96622.00;;;;8285490;28;20314;-72
2022/05/15 11:51:05;;;;;;;1.80;1.52;;;;;35.20;96620.00;;;;8310804;28;20332;-70
2022/05/15 11:55:46;;;;;;;4.10;1.80;;;;;35.60;96622.00;;;;8307029;28;20229;-73
2022/05/15 11:59:52;;;;;;;2.38;1.50;;;;;36.00;96614.00;;;;8308148;28;20324;-72
2022/05/15 12:04:00;;;;;;;2.50;1.50;;;;;36.00;96610.00;;;;8303809;28;20317;-69
2022/05/15 12:08:28;;;;;;;3.20;1.50;;;;;35.80;96609.00;;;;8307889;28;20440;-70
2022/05/15 12:13:08;;;;;;;4.65;1.95;;;;;36.20;96603.00;;;;8302937;28;20317;-75
2022/05/15 12:17:25;;;;;;;6.57;1.70;;;;;35.90;96605.00;;;;8304234;28;20284;-73
2022/05/15 12:21:40;;;;;;;3.53;1.60;;;;;35.50;96600.00;;;;8302863;28;20316;-67
2022/05/15 12:25:57;;;;;;;2.05;1.73;;;;;34.80;96591.00;;;;8311893;28;20732;-68
2022/05/15 12:30:22;;;;;;;3.60;1.67;;;;;33.80;96595.00;;;;8309896;28;20874;-67
2022/05/15 12:34:32;;;;;;;2.80;1.63;;;;;33.50;96595.00;;;;8309252;28;22186;-72
2022/05/15 12:38:36;;;;;;;4.70;1.73;;;;;33.30;96590.00;;;;8310260;28;20233;-71
2022/05/15 12:42:41;;;;;;;4.13;1.40;;;;;32.90;96591.00;;;;8308286;28;20223;-68
2022/05/15 12:46:57;;;;;;;1.60;1.50;;;;;32.70;96592.00;;;;8288754;28;20309;-70
2022/05/15 12:51:03;;;;;;;4.18;1.85;;;;;32.70;96586.00;;;;8296041;28;20231;-69
2022/05/15 12:55:09;;;;;;;3.53;1.88;;;;;32.40;96577.00;;;;8303770;28;20220;-74
2022/05/15 12:59:18;;;;;;;3.47;1.55;;;;;32.40;96572.00;;;;8289491;28;20225;-75
2022/05/15 13:03:24;;;;;;;4.28;1.83;;;;;32.00;96571.00;;;;8307727;28;20279;-70
2022/05/15 13:07:32;;;;;;;3.47;1.80;;;;;32.20;96571.00;;;;8304245;28;20225;-71
2022/05/15 13:11:42;;;;;;;2.15;1.73;;;;;32.50;96569.00;;;;8310072;28;20261;-72
2022/05/15 13:15:48;;;;;;;4.10;1.80;;;;;32.70;96564.00;;;;8302820;28;20674;-72
2022/05/15 13:19:55;;;;;;;7.43;1.80;;;;;33.20;96571.00;;;;8310357;28;20221;-70
2022/05/15 13:23:58;;;;;;;4.55;1.98;;;;;33.80;96556.00;;;;8308223;28;20225;-69
2022/05/15 13:28:02;;;;;;;7.47;1.50;;;;;34.70;96560.00;;;;8307193;28;20241;-71
2022/05/15 13:32:08;;;;;;;2.22;1.70;;;;;35.10;96560.00;;;;8307118;28;20328;-74
2022/05/15 13:36:16;;;;;;;4.22;2.00;;;;;34.80;96559.00;;;;8311791;28;20228;-71
2022/05/15 13:45:12;;;;;;;6.05;1.90;;;;;35.30;96549.00;;;;8315688;28;20291;-71
2022/05/15 13:49:15;;;;;;;3.47;1.88;;;;;36.10;96548.00;;;;8312811;28;20221;-71
2022/05/15 13:53:26;;;;;;;3.72;1.40;;;;;36.90;96537.00;;;;8313232;28;20209;-74
2022/05/15 13:57:31;;;;;;;1.45;1.38;;;;;37.20;96540.00;;;;8317906;28;20237;-70
2022/05/15 14:01:36;;;;;;;5.20;1.80;;;;;37.50;96539.00;;;;8315910;28;20227;-72
2022/05/15 14:06:27;;;;;;;2.95;1.90;;;;;37.50;96540.00;;;;8301097;28;20233;-69
2022/05/15 14:10:35;;;;;;;2.33;1.70;;;;;37.50;96534.00;;;;8314160;28;20228;-75
2022/05/15 14:14:53;;;;;;;3.33;1.63;;;;;37.30;96528.00;;;;8316938;28;20235;-74
2022/05/15 14:18:56;;;;;;;2.20;1.40;;;;;37.20;96528.00;;;;8313393;28;20233;-70
2022/05/15 14:23:00;;;;;;;2.72;1.50;;;;;36.80;96523.00;;;;8305393;28;21145;-68
2022/05/15 14:27:05;;;;;;;1.90;1.60;;;;;36.90;96527.00;;;;8302695;28;20232;-69
2022/05/15 14:31:09;;;;;;;3.03;1.63;;;;;37.00;96513.00;;;;8305343;28;20221;-71
2022/05/15 14:35:14;;;;;;;7.68;1.80;;;;;37.20;96508.00;;;;8301687;28;20856;-71
2022/05/15 14:39:18;;;;;;;1.63;1.42;;;;;37.50;96505.00;;;;8310661;28;20798;-71
2022/05/15 14:43:23;;;;;;;3.00;1.60;;;;;37.40;96504.00;;;;8307068;28;20221;-73
2022/05/15 14:47:34;;;;;;;4.40;1.48;;;;;37.70;96494.00;;;;8309005;28;20229;-71
2022/05/15 14:51:43;;;;;;;3.17;1.80;;;;;37.80;96488.00;;;;8313997;28;20670;-74
2022/05/15 15:00:10;;;;;;;3.92;1.77;;;;;38.40;96495.00;;;;8305351;28;20320;-71
2022/05/15 15:04:14;;;;;;;2.42;1.65;;;;;38.10;96495.00;;;;8305263;28;20770;-71
2022/05/15 15:08:20;;;;;;;3.22;1.70;;;;;38.00;96493.00;;;;8305880;28;20229;-72
2022/05/15 15:12:24;;;;;;;1.88;1.70;;;;;38.00;96486.00;;;;8294837;28;20687;-71
2022/05/15 15:16:30;;;;;;;3.33;1.77;;;;;37.90;96489.00;;;;8306186;28;20589;-73
2022/05/15 15:20:34;;;;;;;3.47;1.58;;;;;37.90;96479.00;;;;8303297;28;20344;-73
2022/05/15 15:24:38;;;;;;;4.57;1.90;;;;;37.10;96483.00;;;;8289196;28;20328;-72
2022/05/15 15:28:41;;;;;;;4.47;1.73;;;;;36.60;96490.00;;;;8302612;28;20892;-71
2022/05/15 15:32:46;;;;;;;1.90;1.58;;;;;36.30;96485.00;;;;8301774;28;20360;-72
2022/05/15 15:38:14;;;;;;;3.10;1.60;;;;;36.10;96478.00;;;;8313184;28;20300;-72
2022/05/15 15:41:13;;;;;;;3.85;1.83;;;;;35.40;96474.00;;;;8299250;28;20240;-73
2022/05/15 15:45:16;;;;;;;3.38;2.00;;;;;34.90;96475.00;;;;8300044;28;20231;-76
2022/05/15 15:49:22;;;;;;;1.90;1.73;;;;;35.00;96470.00;;;;8306161;28;20285;-75
2022/05/15 15:53:25;;;;;;;1.70;1.58;;;;;35.10;96473.00;;;;8301290;28;20247;-70
2022/05/15 15:57:29;;;;;;;1.83;1.70;;;;;34.90;96469.00;;;;8291756;28;20288;-70
2022/05/15 16:01:35;;;;;;;3.30;2.25;;;;;34.30;96463.00;;;;8294425;28;20217;-73
2022/05/15 16:05:41;;;;;;;3.78;2.47;;;;;33.80;96456.00;;;;8303941;28;20226;-73
2022/05/15 16:09:44;;;;;;;3.35;1.73;;;;;33.50;96459.00;;;;8301100;28;20308;-79
2022/05/15 16:13:48;;;;;;;2.40;2.00;;;;;33.10;96451.00;;;;8300986;28;20762;-72
2022/05/15 16:17:51;;;;;;;3.22;1.60;;;;;32.70;96451.00;;;;8304742;28;20229;-75
2022/05/15 16:21:59;;;;;;;6.20;2.35;;;;;32.10;96447.00;;;;8283892;28;20225;-70
2022/05/15 16:26:05;;;;;;;4.50;2.03;;;;;31.80;96442.00;;;;8303886;28;20237;-82
2022/05/15 16:30:11;;;;;;;2.55;1.60;;;;;31.70;96436.00;;;;8300872;28;20231;-75
2022/05/15 16:34:18;;;;;;;2.58;1.88;;;;;31.50;96439.00;;;;8298980;28;20224;-78
2022/05/15 16:38:23;;;;;;;4.25;1.60;;;;;31.30;96439.00;;;;8292991;28;20236;-72
2022/05/15 16:42:34;;;;;;;3.90;1.92;;;;;31.30;96445.00;;;;8290055;28;21211;-74
2022/05/15 16:46:37;;;;;;;1.63;1.50;;;;;31.10;96431.00;;;;8300818;28;20241;-71
2022/05/15 16:50:42;;;;;;;4.65;1.83;;;;;30.90;96433.00;;;;8294866;28;20225;-72
2022/05/15 16:54:47;;;;;;;2.13;1.80;;;;;30.70;96433.00;;;;8297428;28;20226;-70
2022/05/15 16:58:50;;;;;;;3.88;1.90;;;;;30.50;96429.00;;;;8301305;28;20323;-75
2022/05/15 17:02:54;;;;;;;2.30;1.58;;;;;30.50;96430.00;;;;8288130;28;20229;-71
2022/05/15 17:06:57;;;;;;;4.03;2.20;;;;;30.30;96430.00;;;;8299082;28;20267;-71
2022/05/15 17:11:03;;;;;;;1.85;1.70;;;;;30.10;96424.00;;;;8308693;28;20270;-70
2022/05/15 17:15:08;;;;;;;3.08;1.95;;;;;29.60;96425.00;;;;8289139;28;20315;-78
2022/05/15 17:19:11;;;;;;;3.47;2.15;;;;;29.60;96422.00;;;;8303326;28;20221;-76
2022/05/15 17:23:15;;;;;;;2.65;1.95;;;;;30.30;96425.00;;;;8311225;28;20229;-73
2022/05/15 17:27:20;;;;;;;4.35;2.10;;;;;30.80;96416.00;;;;8297160;28;20263;-73
2022/05/15 17:35:44;;;;;;;4.00;2.10;;;;;30.60;96412.00;;;;8301897;28;20233;-74
2022/05/15 17:39:48;;;;;;;3.55;2.13;;;;;30.00;96400.00;;;;8307148;28;20237;-74
2022/05/15 17:43:54;;;;;;;3.70;1.95;;;;;29.40;96409.00;;;;8300815;28;20272;-71
2022/05/15 17:47:58;;;;;;;4.78;1.70;;;;;28.70;96403.00;;;;8307363;28;20697;-70
2022/05/15 17:52:02;;;;;;;4.32;2.13;;;;;28.20;96408.00;;;;8298146;28;20229;-72
2022/05/15 17:56:07;;;;;;;4.82;2.08;;;;;27.60;96411.00;;;;8308828;28;20236;-71
2022/05/15 18:00:16;;;;;;;6.88;1.90;;;;;26.80;96408.00;;;;8306009;28;20689;-75
2022/05/15 18:04:20;;;;;;;6.13;2.10;;;;;26.00;96406.00;;;;8291743;28;20827;-74
2022/05/15 18:08:23;;;;;;;12.65;2.28;;;;;25.40;96411.00;;;;8310949;28;20237;-70
2022/05/15 18:12:29;;;;;;;7.95;2.30;;;;;24.90;96416.00;;;;8297544;28;20332;-72
2022/05/15 18:16:33;;;;;;;3.25;2.08;;;;;24.40;96412.00;;;;8307009;28;20606;-71
2022/05/15 18:20:38;;;;;;;3.15;2.40;;;;;23.90;96415.00;;;;8298509;28;20244;-74
2022/05/15 18:24:42;;;;;;;5.15;2.20;;;;;23.30;96416.00;;;;8313384;28;20602;-73
2022/05/15 18:28:46;;;;;;;4.22;2.45;;;;;22.70;96416.00;;;;8304437;28;20225;-72
2022/05/15 18:32:51;;;;;;;3.83;2.65;;;;;22.20;96411.00;;;;8302335;28;20971;-72
2022/05/15 18:36:54;;;;;;;3.15;2.40;;;;;21.80;96414.00;;;;8308285;28;20229;-74
2022/05/15 18:40:57;;;;;;;8.45;2.83;;;;;21.30;96420.00;;;;8310737;28;20229;-74
2022/05/15 18:45:01;;;;;;;4.82;2.58;;;;;20.90;96422.00;;;;8309440;28;20245;-72
2022/05/15 18:49:06;;;;;;;2.75;2.50;;;;;20.60;96423.00;;;;8309816;28;20696;-72
2022/05/15 18:57:31;;;;;;;3.13;2.78;;;;;20.00;96419.00;;;;8314447;28;20233;-74
2022/05/15 19:01:34;;;;;;;7.60;2.95;;;;;19.70;96419.00;;;;8312372;28;20229;-74
2022/05/15 19:05:39;;;;;;;4.10;2.90;;;;;19.40;96414.00;;;;8312010;28;20221;-72
2022/05/15 19:09:42;;;;;;;2.75;2.47;;;;;19.10;96419.00;;;;8313620;28;20845;-70
2022/05/15 19:13:45;;;;;;;3.42;2.17;;;;;18.80;96420.00;;;;8309601;28;20663;-71
2022/05/15 19:17:49;;;;;;;8.90;3.08;;;;;18.60;96423.00;;;;8301014;28;20225;-69
2022/05/15 19:21:54;;;;;;;3.47;2.47;;;;;18.40;96415.00;;;;8299772;28;20659;-73
2022/05/15 19:25:57;;;;;;;3.75;2.45;;;;;18.30;96427.00;;;;8287790;28;20300;-74
2022/05/15 19:30:01;;;;;;;2.90;2.60;;;;;18.20;96433.00;;;;8280489;28;20226;-73
2022/05/15 19:34:04;;;;;;;3.67;3.10;;;;;18.00;96423.00;;;;8292305;28;20221;-72
2022/05/15 19:38:09;;;;;;;6.13;2.92;;;;;17.80;96428.00;;;;8308312;28;20225;-72
2022/05/15 19:42:12;;;;;;;3.30;3.08;;;;;17.60;96444.00;;;;8309910;28;20940;-72
2022/05/15 19:46:15;;;;;;;6.28;3.10;;;;;17.80;96445.00;;;;8313134;28;20678;-71
2022/05/15 19:50:19;;;;;;;4.57;3.08;;;;;18.20;96449.00;;;;8310887;28;20233;-71
2022/05/15 19:54:24;;;;;;;4.18;3.10;;;;;18.40;96446.00;;;;8309597;28;20236;-72
2022/05/15 19:58:28;;;;;;;5.25;4.07;;;;;18.40;96448.00;;;;8308975;28;20238;-71
2022/05/15 20:02:31;;;;;;;5.18;2.72;;;;;18.30;96446.00;;;;8305390;28;21046;-72
2022/05/15 20:15:23;;;;;;;2.90;2.60;;;;;18.40;96444.00;;;;8302357;28;20224;-71
2022/05/15 20:19:26;;;;;;;6.55;2.80;;;;;18.50;96447.00;;;;8303826;28;20288;-71
2022/05/15 20:23:30;;;;;;;3.10;2.88;;;;;18.40;96444.00;;;;8302663;28;20226;-72
2022/05/15 20:27:34;;;;;;;6.57;2.83;;;;;18.30;96439.00;;;;8283378;28;20233;-72
2022/05/15 20:31:40;;;;;;;4.28;2.70;;;;;18.20;96445.00;;;;8300977;28;20222;-73
2022/05/15 20:35:43;;;;;;;4.03;2.63;;;;;18.10;96441.00;;;;8276630;28;20228;-73
2022/05/15 20:39:47;;;;;;;6.07;3.00;;;;;17.80;96448.00;;;;8289889;28;20257;-72
2022/05/15 20:43:51;;;;;;;9.70;2.80;;;;;17.60;96448.00;;;;8298590;28;20678;-72
2022/05/15 20:47:54;;;;;;;3.58;2.80;;;;;17.50;96455.00;;;;8308167;28;20243;-71
2022/05/15 20:51:58;;;;;;;3.72;3.42;;;;;17.40;96458.00;;;;8310716;28;20230;-70
2022/05/15 20:56:03;;;;;;;5.82;3.75;;;;;17.20;96460.00;;;;8305815;28;20226;-70
2022/05/15 21:00:10;;;;;;;5.90;3.50;;;;;17.00;96459.00;;;;8301816;28;20236;-70
2022/05/15 21:04:14;;;;;;;11.88;3.97;;;;;16.90;96475.00;;;;8308416;28;20235;-72
2022/05/15 21:08:17;;;;;;;5.05;3.70;;;;;16.70;96475.00;;;;8286275;28;20305;-71
2022/05/15 21:12:20;;;;;;;5.63;3.40;;;;;16.50;96472.00;;;;8305138;28;20233;-72